Barada, Nebraska
Current Conditions -  °F | °C
As of 4:53 PM on Thursday 20 Nov 2014 (Local Time) from KFNB Reporting Station
Clear Clear  
Wind Chill: 22°   Ceiling: Unl
Heat Index: 29°   Visibility: 8mi
Dew Point: 19°   Wind: 7mph
Humidity: 67%   Direction: 80°E
Pressure: 30.21"   Gusts: NA
Location:  40.1276°N, 95.5661°W
Report Text: KFNB 202253Z AUTO 08006KT 8SM CLR M02/M07 A3021 RMK AO2 SLP243 T10171072
Loading
Personal Weather Stations






























Interactive Weather Map New forecast layout! Learn more

10-Day Weather Forecast

Advertisements
Track Severe Weather on mobile